GFA215 OBBI-OKKK
Flight info
| Callsign | GFA215 |
|---|---|
| Flight time | 0h 43m |
| Altitude | 26000 |
| Route | BHR345/30R DCT BHR A453 KUMBO/N0394F240 A453 DEBTI DEBTI1G |
| Aircraft | A20N/M-SDE2E3FGHIRWXY/LB1 |
Departure
| Time | 2026-05-04 18:05 |
|---|---|
| Airport | Bahrain International Airport (OBBI) |
Arrival
| Time | 2026-05-04 18:48 |
|---|---|
| Airport | Kuwait International Airport (OKKK) |
| Time | Latitude | Longitude | Altitude | Speed | Heading |
|---|---|---|---|---|---|
| 2026-05-04 17:44 | 26.26798 | 50.63071 | 19 ft | 0 kts | 213° |
| 2026-05-04 17:50 | 26.26798 | 50.63072 | 19 ft | 0 kts | 213° |
| 2026-05-04 17:53 | 26.26799 | 50.63072 | 19 ft | 2 kts | 213° |
| 2026-05-04 17:53 | 26.26819 | 50.63087 | 19 ft | 4 kts | 215° |
| 2026-05-04 17:53 | 26.26840 | 50.63104 | 20 ft | 4 kts | 218° |
| 2026-05-04 17:54 | 26.26859 | 50.63122 | 21 ft | 4 kts | 225° |
| 2026-05-04 17:54 | 26.26875 | 50.63143 | 19 ft | 4 kts | 254° |
| 2026-05-04 17:54 | 26.26876 | 50.63147 | 19 ft | 3 kts | 265° |
| 2026-05-04 17:55 | 26.26876 | 50.63151 | 18 ft | 2 kts | 259° |
| 2026-05-04 17:55 | 26.26885 | 50.63162 | 18 ft | 0 kts | 148° |
| 2026-05-04 17:57 | 26.26883 | 50.63163 | 17 ft | 2 kts | 148° |
| 2026-05-04 17:58 | 26.26858 | 50.63190 | 18 ft | 8 kts | 128° |
| 2026-05-04 17:58 | 26.26817 | 50.63263 | 18 ft | 14 kts | 122° |
| 2026-05-04 17:58 | 26.26809 | 50.63379 | 16 ft | 18 kts | 58° |
| 2026-05-04 17:58 | 26.26789 | 50.63521 | 17 ft | 22 kts | 122° |
| 2026-05-04 17:59 | 26.26721 | 50.63645 | 19 ft | 17 kts | 120° |
| 2026-05-04 17:59 | 26.26656 | 50.63750 | 17 ft | 16 kts | 123° |
| 2026-05-04 17:59 | 26.26477 | 50.64061 | 17 ft | 26 kts | 121° |
| 2026-05-04 18:00 | 26.26382 | 50.64223 | 16 ft | 20 kts | 122° |
| 2026-05-04 18:00 | 26.26309 | 50.64348 | 15 ft | 19 kts | 123° |
| 2026-05-04 18:00 | 26.26244 | 50.64463 | 15 ft | 15 kts | 123° |
| 2026-05-04 18:00 | 26.26192 | 50.64554 | 16 ft | 13 kts | 122° |
| 2026-05-04 18:01 | 26.26141 | 50.64644 | 16 ft | 21 kts | 121° |
| 2026-05-04 18:01 | 26.26031 | 50.64858 | 18 ft | 24 kts | 99° |
| 2026-05-04 18:01 | 26.26041 | 50.64921 | 19 ft | 0 kts | 68° |
| 2026-05-04 18:02 | 26.26095 | 50.64996 | 20 ft | 16 kts | 33° |
| 2026-05-04 18:02 | 26.26164 | 50.64956 | 22 ft | 13 kts | 294° |
| 2026-05-04 18:02 | 26.26216 | 50.64855 | 26 ft | 16 kts | 304° |
| 2026-05-04 18:03 | 26.26274 | 50.64754 | 26 ft | 4 kts | 302° |
| 2026-05-04 18:04 | 26.26537 | 50.64300 | 24 ft | 110 kts | 302° |
| 2026-05-04 18:05 | 26.27083 | 50.63354 | 160 ft | 163 kts | 301° |
| 2026-05-04 18:05 | 26.27624 | 50.62294 | 1097 ft | 157 kts | 301° |
| 2026-05-04 18:05 | 26.28110 | 50.61181 | 1910 ft | 154 kts | 300° |
| 2026-05-04 18:05 | 26.28791 | 50.60255 | 2177 ft | 162 kts | 334° |
| 2026-05-04 18:06 | 26.31240 | 50.59403 | 2589 ft | 208 kts | 348° |
| 2026-05-04 18:06 | 26.32715 | 50.59025 | 2860 ft | 232 kts | 348° |
| 2026-05-04 18:06 | 26.34360 | 50.58611 | 3265 ft | 249 kts | 348° |
| 2026-05-04 18:07 | 26.36078 | 50.58188 | 3805 ft | 256 kts | 348° |
| 2026-05-04 18:07 | 26.37824 | 50.57772 | 3960 ft | 255 kts | 348° |
| 2026-05-04 18:07 | 26.39570 | 50.57361 | 3997 ft | 254 kts | 348° |
| 2026-05-04 18:07 | 26.41306 | 50.56956 | 4000 ft | 253 kts | 348° |
| 2026-05-04 18:08 | 26.43060 | 50.56548 | 4341 ft | 256 kts | 347° |
| 2026-05-04 18:08 | 26.44807 | 50.56082 | 5166 ft | 257 kts | 345° |
| 2026-05-04 18:08 | 26.46543 | 50.55573 | 5937 ft | 260 kts | 343° |
| 2026-05-04 18:08 | 26.48280 | 50.55049 | 6659 ft | 263 kts | 343° |
| 2026-05-04 18:09 | 26.51853 | 50.53971 | 8149 ft | 268 kts | 343° |
| 2026-05-04 18:09 | 26.55508 | 50.52884 | 9579 ft | 279 kts | 343° |
| 2026-05-04 18:10 | 26.57466 | 50.52303 | 9788 ft | 302 kts | 343° |
| 2026-05-04 18:10 | 26.59586 | 50.51675 | 9947 ft | 326 kts | 343° |
| 2026-05-04 18:10 | 26.61858 | 50.51005 | 10061 ft | 348 kts | 343° |
| 2026-05-04 18:10 | 26.64267 | 50.50295 | 10195 ft | 368 kts | 344° |
| 2026-05-04 18:11 | 26.66779 | 50.49557 | 10586 ft | 377 kts | 344° |
| 2026-05-04 18:11 | 26.69303 | 50.48664 | 11114 ft | 381 kts | 335° |
| 2026-05-04 18:11 | 26.71588 | 50.47127 | 11678 ft | 384 kts | 321° |
| 2026-05-04 18:11 | 26.73559 | 50.45100 | 12260 ft | 388 kts | 316° |
| 2026-05-04 18:12 | 26.75556 | 50.42975 | 12846 ft | 392 kts | 316° |
| 2026-05-04 18:12 | 26.77544 | 50.40869 | 13424 ft | 396 kts | 316° |
| 2026-05-04 18:12 | 26.79565 | 50.38731 | 13962 ft | 400 kts | 316° |
| 2026-05-04 18:12 | 26.81621 | 50.36560 | 14493 ft | 403 kts | 316° |
| 2026-05-04 18:13 | 26.83672 | 50.34392 | 15022 ft | 407 kts | 316° |
| 2026-05-04 18:13 | 26.85727 | 50.32220 | 15400 ft | 415 kts | 316° |
| 2026-05-04 18:13 | 26.90025 | 50.27666 | 16165 ft | 425 kts | 316° |
| 2026-05-04 18:14 | 26.92195 | 50.25360 | 16667 ft | 427 kts | 316° |
| 2026-05-04 18:14 | 26.94359 | 50.23058 | 17169 ft | 429 kts | 315° |
| 2026-05-04 18:14 | 26.96501 | 50.20780 | 17676 ft | 431 kts | 315° |
| 2026-05-04 18:15 | 27.00863 | 50.16142 | 18638 ft | 433 kts | 315° |
| 2026-05-04 18:15 | 27.05194 | 50.11410 | 19563 ft | 434 kts | 309° |
| 2026-05-04 18:15 | 27.06534 | 50.09654 | 19887 ft | 434 kts | 309° |
| 2026-05-04 18:16 | 27.09128 | 50.06248 | 20525 ft | 434 kts | 309° |
| 2026-05-04 18:16 | 27.10447 | 50.04514 | 20852 ft | 434 kts | 309° |
| 2026-05-04 18:16 | 27.12416 | 50.01926 | 21349 ft | 434 kts | 308° |
| 2026-05-04 18:17 | 27.16332 | 49.96781 | 22365 ft | 433 kts | 308° |
| 2026-05-04 18:17 | 27.18288 | 49.94203 | 22884 ft | 433 kts | 308° |
| 2026-05-04 18:17 | 27.22200 | 49.89034 | 23851 ft | 432 kts | 307° |
| 2026-05-04 18:18 | 27.24151 | 49.86462 | 24301 ft | 431 kts | 307° |
| 2026-05-04 18:18 | 27.26086 | 49.83910 | 24758 ft | 431 kts | 307° |
| 2026-05-04 18:18 | 27.28041 | 49.81333 | 25222 ft | 430 kts | 307° |
| 2026-05-04 18:18 | 27.29985 | 49.78771 | 25642 ft | 430 kts | 307° |
| 2026-05-04 18:19 | 27.33934 | 49.73549 | 25813 ft | 446 kts | 307° |
| 2026-05-04 18:19 | 27.35970 | 49.70845 | 25809 ft | 454 kts | 307° |
| 2026-05-04 18:19 | 27.38028 | 49.68114 | 25809 ft | 461 kts | 307° |
| 2026-05-04 18:20 | 27.40090 | 49.65375 | 25807 ft | 464 kts | 307° |
| 2026-05-04 18:20 | 27.42184 | 49.62592 | 25808 ft | 465 kts | 307° |
| 2026-05-04 18:20 | 27.44310 | 49.59771 | 25810 ft | 466 kts | 307° |
| 2026-05-04 18:20 | 27.46413 | 49.56981 | 25808 ft | 466 kts | 307° |
| 2026-05-04 18:21 | 27.48632 | 49.54294 | 25807 ft | 470 kts | 314° |
| 2026-05-04 18:21 | 27.51185 | 49.51967 | 25807 ft | 473 kts | 317° |
| 2026-05-04 18:21 | 27.53749 | 49.49681 | 25809 ft | 472 kts | 317° |
| 2026-05-04 18:21 | 27.56351 | 49.47352 | 25809 ft | 473 kts | 317° |
| 2026-05-04 18:22 | 27.58965 | 49.45005 | 25805 ft | 472 kts | 317° |
| 2026-05-04 18:22 | 27.61569 | 49.42665 | 25802 ft | 472 kts | 317° |
| 2026-05-04 18:22 | 27.64140 | 49.40354 | 25803 ft | 472 kts | 317° |
| 2026-05-04 18:22 | 27.66709 | 49.38044 | 25802 ft | 472 kts | 317° |
| 2026-05-04 18:23 | 27.69288 | 49.35729 | 25797 ft | 472 kts | 317° |
| 2026-05-04 18:23 | 27.71842 | 49.33440 | 25792 ft | 473 kts | 317° |
| 2026-05-04 18:23 | 27.74455 | 49.31095 | 25793 ft | 473 kts | 317° |
| 2026-05-04 18:23 | 27.77034 | 49.28775 | 25794 ft | 473 kts | 317° |
| 2026-05-04 18:24 | 27.79641 | 49.26425 | 25792 ft | 473 kts | 317° |
| 2026-05-04 18:24 | 27.82224 | 49.24094 | 25797 ft | 474 kts | 317° |
| 2026-05-04 18:24 | 27.84804 | 49.21766 | 25798 ft | 474 kts | 317° |
| 2026-05-04 18:24 | 27.87405 | 49.19476 | 25798 ft | 477 kts | 321° |
| 2026-05-04 18:25 | 27.90256 | 49.17517 | 25797 ft | 480 kts | 325° |
| 2026-05-04 18:25 | 27.93154 | 49.15613 | 25796 ft | 480 kts | 325° |
| 2026-05-04 18:25 | 27.96049 | 49.13719 | 25793 ft | 480 kts | 325° |
| 2026-05-04 18:25 | 27.98952 | 49.11820 | 25790 ft | 481 kts | 325° |
| 2026-05-04 18:26 | 28.01849 | 49.09922 | 25789 ft | 481 kts | 325° |
| 2026-05-04 18:26 | 28.04763 | 49.08013 | 25785 ft | 481 kts | 325° |
| 2026-05-04 18:26 | 28.07610 | 49.06149 | 25571 ft | 473 kts | 325° |
| 2026-05-04 18:26 | 28.10433 | 49.04299 | 24869 ft | 466 kts | 325° |
| 2026-05-04 18:27 | 28.13233 | 49.02462 | 24099 ft | 461 kts | 326° |
| 2026-05-04 18:27 | 28.16033 | 49.00617 | 23335 ft | 458 kts | 326° |
| 2026-05-04 18:27 | 28.18783 | 48.98800 | 22526 ft | 454 kts | 326° |
| 2026-05-04 18:27 | 28.21493 | 48.97006 | 21978 ft | 450 kts | 326° |
| 2026-05-04 18:28 | 28.24194 | 48.95220 | 21774 ft | 448 kts | 326° |
| 2026-05-04 18:28 | 28.26922 | 48.93421 | 21802 ft | 447 kts | 326° |
| 2026-05-04 18:28 | 28.29615 | 48.91642 | 21801 ft | 447 kts | 326° |
| 2026-05-04 18:28 | 28.32306 | 48.89859 | 21804 ft | 447 kts | 326° |
| 2026-05-04 18:29 | 28.35016 | 48.88064 | 21800 ft | 447 kts | 326° |
| 2026-05-04 18:29 | 28.37721 | 48.86270 | 21799 ft | 447 kts | 326° |
| 2026-05-04 18:29 | 28.40378 | 48.84509 | 21802 ft | 447 kts | 326° |
| 2026-05-04 18:29 | 28.43100 | 48.82705 | 21804 ft | 448 kts | 326° |
| 2026-05-04 18:30 | 28.48511 | 48.79116 | 21796 ft | 454 kts | 326° |
| 2026-05-04 18:30 | 28.51242 | 48.77305 | 21796 ft | 454 kts | 326° |
| 2026-05-04 18:30 | 28.53992 | 48.75478 | 21796 ft | 454 kts | 326° |
| 2026-05-04 18:31 | 28.56605 | 48.73530 | 21667 ft | 439 kts | 317° |
| 2026-05-04 18:31 | 28.58780 | 48.71206 | 21187 ft | 424 kts | 307° |
| 2026-05-04 18:31 | 28.60587 | 48.68550 | 20572 ft | 417 kts | 303° |
| 2026-05-04 18:31 | 28.62290 | 48.65959 | 19981 ft | 412 kts | 304° |
| 2026-05-04 18:32 | 28.64011 | 48.63358 | 19390 ft | 408 kts | 304° |
| 2026-05-04 18:32 | 28.65717 | 48.60794 | 18817 ft | 404 kts | 304° |
| 2026-05-04 18:32 | 28.67413 | 48.58250 | 18247 ft | 400 kts | 304° |
| 2026-05-04 18:32 | 28.69088 | 48.55735 | 17628 ft | 397 kts | 304° |
| 2026-05-04 18:33 | 28.70753 | 48.53225 | 16992 ft | 394 kts | 304° |
| 2026-05-04 18:33 | 28.72407 | 48.50752 | 16352 ft | 392 kts | 306° |
| 2026-05-04 18:33 | 28.74389 | 48.48611 | 15735 ft | 396 kts | 320° |
| 2026-05-04 18:33 | 28.76773 | 48.47008 | 15129 ft | 397 kts | 327° |
| 2026-05-04 18:34 | 28.78413 | 48.45996 | 14732 ft | 396 kts | 327° |
| 2026-05-04 18:34 | 28.80827 | 48.44506 | 14148 ft | 394 kts | 327° |
| 2026-05-04 18:34 | 28.83216 | 48.43031 | 13725 ft | 387 kts | 327° |
| 2026-05-04 18:34 | 28.85612 | 48.41547 | 13092 ft | 385 kts | 327° |
| 2026-05-04 18:35 | 28.87930 | 48.40106 | 12469 ft | 383 kts | 327° |
| 2026-05-04 18:35 | 28.90262 | 48.38655 | 11852 ft | 380 kts | 327° |
| 2026-05-04 18:35 | 28.92574 | 48.37215 | 11245 ft | 377 kts | 328° |
| 2026-05-04 18:35 | 28.94868 | 48.35787 | 10654 ft | 374 kts | 328° |
| 2026-05-04 18:36 | 28.97150 | 48.34362 | 10068 ft | 371 kts | 328° |
| 2026-05-04 18:36 | 28.99403 | 48.32953 | 9481 ft | 368 kts | 329° |
| 2026-05-04 18:36 | 29.01644 | 48.31555 | 8854 ft | 364 kts | 329° |
| 2026-05-04 18:36 | 29.03859 | 48.30174 | 8242 ft | 361 kts | 329° |
| 2026-05-04 18:37 | 29.06053 | 48.28807 | 7634 ft | 357 kts | 330° |
| 2026-05-04 18:37 | 29.08222 | 48.27455 | 7055 ft | 353 kts | 330° |
| 2026-05-04 18:37 | 29.10371 | 48.26112 | 6479 ft | 349 kts | 330° |
| 2026-05-04 18:37 | 29.12516 | 48.24772 | 5877 ft | 345 kts | 330° |
| 2026-05-04 18:38 | 29.14625 | 48.23453 | 5288 ft | 342 kts | 331° |
| 2026-05-04 18:38 | 29.16671 | 48.22173 | 5050 ft | 327 kts | 331° |
| 2026-05-04 18:38 | 29.18616 | 48.20956 | 4993 ft | 308 kts | 331° |
| 2026-05-04 18:38 | 29.20434 | 48.19817 | 5002 ft | 287 kts | 331° |
| 2026-05-04 18:39 | 29.22149 | 48.18744 | 5000 ft | 268 kts | 331° |
| 2026-05-04 18:39 | 29.23745 | 48.17746 | 5003 ft | 258 kts | 330° |
| 2026-05-04 18:39 | 29.25316 | 48.16762 | 5005 ft | 256 kts | 330° |
| 2026-05-04 18:39 | 29.26881 | 48.15781 | 5004 ft | 256 kts | 330° |
| 2026-05-04 18:40 | 29.28466 | 48.14787 | 5003 ft | 261 kts | 330° |
| 2026-05-04 18:40 | 29.30058 | 48.13790 | 5002 ft | 256 kts | 330° |
| 2026-05-04 18:40 | 29.31619 | 48.12813 | 5005 ft | 255 kts | 330° |
| 2026-05-04 18:40 | 29.33157 | 48.11848 | 5004 ft | 255 kts | 330° |
| 2026-05-04 18:41 | 29.34723 | 48.10865 | 4958 ft | 254 kts | 330° |
| 2026-05-04 18:41 | 29.36257 | 48.09899 | 4594 ft | 253 kts | 330° |
| 2026-05-04 18:41 | 29.37799 | 48.08928 | 4247 ft | 251 kts | 330° |
| 2026-05-04 18:41 | 29.39310 | 48.07976 | 3999 ft | 245 kts | 330° |
| 2026-05-04 18:42 | 29.40797 | 48.07042 | 3651 ft | 244 kts | 331° |
| 2026-05-04 18:42 | 29.42198 | 48.05924 | 3262 ft | 243 kts | 310° |
| 2026-05-04 18:42 | 29.42960 | 48.04261 | 2888 ft | 240 kts | 279° |
| 2026-05-04 18:42 | 29.42900 | 48.02350 | 2528 ft | 236 kts | 249° |
| 2026-05-04 18:43 | 29.42273 | 48.00607 | 2137 ft | 237 kts | 244° |
| 2026-05-04 18:43 | 29.41607 | 47.98852 | 1769 ft | 238 kts | 243° |
| 2026-05-04 18:43 | 29.40945 | 47.97114 | 1529 ft | 237 kts | 243° |
| 2026-05-04 18:43 | 29.40281 | 47.95370 | 1503 ft | 238 kts | 243° |
| 2026-05-04 18:44 | 29.39613 | 47.93614 | 1504 ft | 240 kts | 243° |
| 2026-05-04 18:44 | 29.39155 | 47.92402 | 1499 ft | 237 kts | 243° |
| 2026-05-04 18:44 | 29.38112 | 47.90266 | 1501 ft | 226 kts | 216° |
| 2026-05-04 18:44 | 29.36754 | 47.89658 | 1502 ft | 201 kts | 173° |
| 2026-05-04 18:45 | 29.35478 | 47.90103 | 1496 ft | 185 kts | 155° |
| 2026-05-04 18:45 | 29.34303 | 47.90703 | 1499 ft | 181 kts | 154° |
| 2026-05-04 18:45 | 29.33177 | 47.91296 | 1497 ft | 173 kts | 154° |
| 2026-05-04 18:45 | 29.32108 | 47.91864 | 1533 ft | 165 kts | 153° |
| 2026-05-04 18:46 | 29.31073 | 47.92414 | 1495 ft | 163 kts | 153° |
| 2026-05-04 18:46 | 29.30076 | 47.92944 | 1333 ft | 155 kts | 153° |
| 2026-05-04 18:46 | 29.29106 | 47.93461 | 1177 ft | 152 kts | 153° |
| 2026-05-04 18:46 | 29.28152 | 47.93969 | 1004 ft | 151 kts | 154° |
| 2026-05-04 18:47 | 29.27189 | 47.94481 | 834 ft | 154 kts | 154° |
| 2026-05-04 18:47 | 29.26211 | 47.95002 | 647 ft | 155 kts | 154° |
| 2026-05-04 18:47 | 29.25227 | 47.95525 | 433 ft | 156 kts | 154° |
| 2026-05-04 18:47 | 29.24249 | 47.96045 | 246 ft | 154 kts | 154° |
| 2026-05-04 18:48 | 29.23282 | 47.96570 | 177 ft | 144 kts | 153° |
| 2026-05-04 18:48 | 29.22823 | 47.96811 | 175 ft | 30 kts | 155° |
| 2026-05-04 18:48 | 29.22643 | 47.96907 | 177 ft | 28 kts | 154° |
| 2026-05-04 18:48 | 29.22466 | 47.97002 | 178 ft | 31 kts | 155° |
| 2026-05-04 18:49 | 29.22248 | 47.97118 | 180 ft | 33 kts | 154° |
| 2026-05-04 18:49 | 29.22043 | 47.97233 | 183 ft | 32 kts | 148° |
| 2026-05-04 18:49 | 29.21955 | 47.97361 | 179 ft | 0 kts | 110° |
| 2026-05-04 18:49 | 29.21955 | 47.97362 | 179 ft | 0 kts | 110° |
| 2026-05-04 18:51 | 29.21949 | 47.97379 | 178 ft | 7 kts | 110° |
| 2026-05-04 18:51 | 29.21946 | 47.97483 | 173 ft | 16 kts | 47° |
| 2026-05-04 18:51 | 29.22026 | 47.97475 | 172 ft | 12 kts | 334° |
| 2026-05-04 18:51 | 29.22096 | 47.97435 | 171 ft | 11 kts | 333° |
| 2026-05-04 18:52 | 29.22160 | 47.97398 | 171 ft | 10 kts | 333° |
| 2026-05-04 18:52 | 29.22246 | 47.97355 | 170 ft | 19 kts | 335° |
| 2026-05-04 18:52 | 29.22364 | 47.97294 | 169 ft | 18 kts | 335° |
| 2026-05-04 18:52 | 29.22476 | 47.97237 | 167 ft | 17 kts | 336° |
| 2026-05-04 18:53 | 29.22582 | 47.97179 | 166 ft | 16 kts | 333° |
| 2026-05-04 18:53 | 29.22684 | 47.97125 | 164 ft | 16 kts | 335° |
| 2026-05-04 18:53 | 29.22779 | 47.97073 | 163 ft | 15 kts | 335° |
| 2026-05-04 18:53 | 29.22853 | 47.97034 | 163 ft | 21 kts | 335° |
| 2026-05-04 18:54 | 29.22988 | 47.96960 | 161 ft | 22 kts | 332° |
| 2026-05-04 18:54 | 29.23128 | 47.96889 | 160 ft | 22 kts | 336° |
| 2026-05-04 18:54 | 29.23276 | 47.96812 | 158 ft | 24 kts | 335° |
| 2026-05-04 18:54 | 29.23434 | 47.96730 | 156 ft | 26 kts | 334° |
| 2026-05-04 18:55 | 29.23588 | 47.96647 | 154 ft | 12 kts | 336° |
| 2026-05-04 18:55 | 29.23694 | 47.96724 | 151 ft | 15 kts | 64° |
| 2026-05-04 18:55 | 29.23741 | 47.96841 | 151 ft | 17 kts | 66° |
| 2026-05-04 18:56 | 29.23792 | 47.96968 | 152 ft | 18 kts | 66° |
| 2026-05-04 18:56 | 29.23807 | 47.97083 | 154 ft | 13 kts | 72° |
| 2026-05-04 18:56 | 29.23815 | 47.97165 | 156 ft | 0 kts | 89° |